sensor_id;sensor_type;location;lat;lon;timestamp;P1;durP1;ratioP1;P2;durP2;ratioP2
6739;SDS011;3407;49.882;10.920;2022-07-29T00:03:17;4.20;;;2.13;;
6739;SDS011;3407;49.882;10.920;2022-07-29T00:08:13;4.03;;;2.13;;
6739;SDS011;3407;49.882;10.920;2022-07-29T00:13:10;2.27;;;2.07;;
6739;SDS011;3407;49.882;10.920;2022-07-29T00:18:05;3.10;;;2.17;;
6739;SDS011;3407;49.882;10.920;2022-07-29T00:23:01;2.70;;;1.60;;
6739;SDS011;3407;49.882;10.920;2022-07-29T00:27:57;3.60;;;1.80;;
6739;SDS011;3407;49.882;10.920;2022-07-29T00:32:52;13.30;;;3.40;;
6739;SDS011;3407;49.882;10.920;2022-07-29T00:37:48;2.80;;;1.90;;
6739;SDS011;3407;49.882;10.920;2022-07-29T00:47:43;2.53;;;1.80;;
6739;SDS011;3407;49.882;10.920;2022-07-29T00:52:39;1.60;;;1.50;;
6739;SDS011;3407;49.882;10.920;2022-07-29T00:57:36;2.73;;;2.13;;
6739;SDS011;3407;49.882;10.920;2022-07-29T01:02:32;3.07;;;1.80;;
6739;SDS011;3407;49.882;10.920;2022-07-29T01:07:28;10.93;;;2.13;;
6739;SDS011;3407;49.882;10.920;2022-07-29T01:12:27;1.87;;;1.70;;
6739;SDS011;3407;49.882;10.920;2022-07-29T01:17:28;4.07;;;2.10;;
6739;SDS011;3407;49.882;10.920;2022-07-29T01:22:35;6.33;;;2.50;;
6739;SDS011;3407;49.882;10.920;2022-07-29T01:27:45;2.43;;;2.00;;
6739;SDS011;3407;49.882;10.920;2022-07-29T01:32:51;2.07;;;1.83;;
6739;SDS011;3407;49.882;10.920;2022-07-29T01:43:09;1.83;;;1.70;;
6739;SDS011;3407;49.882;10.920;2022-07-29T01:48:12;3.77;;;1.60;;
6739;SDS011;3407;49.882;10.920;2022-07-29T01:53:11;2.37;;;1.70;;
6739;SDS011;3407;49.882;10.920;2022-07-29T01:58:09;5.93;;;1.60;;
6739;SDS011;3407;49.882;10.920;2022-07-29T02:03:08;1.97;;;1.60;;
6739;SDS011;3407;49.882;10.920;2022-07-29T02:08:06;3.10;;;1.47;;
6739;SDS011;3407;49.882;10.920;2022-07-29T02:13:02;2.50;;;1.53;;
6739;SDS011;3407;49.882;10.920;2022-07-29T02:18:03;2.67;;;1.70;;
6739;SDS011;3407;49.882;10.920;2022-07-29T02:23:02;2.17;;;1.70;;
6739;SDS011;3407;49.882;10.920;2022-07-29T02:27:58;4.97;;;1.80;;
6739;SDS011;3407;49.882;10.920;2022-07-29T02:32:56;2.33;;;1.43;;
6739;SDS011;3407;49.882;10.920;2022-07-29T02:37:52;1.97;;;1.60;;
6739;SDS011;3407;49.882;10.920;2022-07-29T02:43:08;1.50;;;1.27;;
6739;SDS011;3407;49.882;10.920;2022-07-29T02:48:06;2.70;;;1.90;;
6739;SDS011;3407;49.882;10.920;2022-07-29T02:53:14;2.30;;;2.07;;
6739;SDS011;3407;49.882;10.920;2022-07-29T03:03:30;4.87;;;1.83;;
6739;SDS011;3407;49.882;10.920;2022-07-29T03:08:31;3.90;;;2.60;;
6739;SDS011;3407;49.882;10.920;2022-07-29T03:13:29;8.97;;;2.60;;
6739;SDS011;3407;49.882;10.920;2022-07-29T03:18:25;3.33;;;2.47;;
6739;SDS011;3407;49.882;10.920;2022-07-29T03:23:22;6.20;;;2.20;;
6739;SDS011;3407;49.882;10.920;2022-07-29T03:28:19;6.43;;;2.40;;
6739;SDS011;3407;49.882;10.920;2022-07-29T03:33:15;3.53;;;2.23;;
6739;SDS011;3407;49.882;10.920;2022-07-29T03:38:11;3.27;;;2.53;;
6739;SDS011;3407;49.882;10.920;2022-07-29T03:43:06;3.17;;;2.20;;
6739;SDS011;3407;49.882;10.920;2022-07-29T03:48:08;5.53;;;2.57;;
6739;SDS011;3407;49.882;10.920;2022-07-29T03:53:07;3.93;;;2.47;;
6739;SDS011;3407;49.882;10.920;2022-07-29T03:58:03;3.77;;;2.00;;
6739;SDS011;3407;49.882;10.920;2022-07-29T04:02:59;5.73;;;2.77;;
6739;SDS011;3407;49.882;10.920;2022-07-29T04:07:56;5.33;;;2.50;;
6739;SDS011;3407;49.882;10.920;2022-07-29T04:12:51;4.60;;;2.87;;
6739;SDS011;3407;49.882;10.920;2022-07-29T04:17:47;6.40;;;2.80;;
6739;SDS011;3407;49.882;10.920;2022-07-29T04:22:43;3.67;;;2.43;;
6739;SDS011;3407;49.882;10.920;2022-07-29T04:27:38;3.33;;;2.40;;
6739;SDS011;3407;49.882;10.920;2022-07-29T04:32:54;4.27;;;2.33;;
6739;SDS011;3407;49.882;10.920;2022-07-29T04:37:49;5.27;;;2.83;;
6739;SDS011;3407;49.882;10.920;2022-07-29T04:42:45;4.40;;;2.90;;
6739;SDS011;3407;49.882;10.920;2022-07-29T04:47:40;3.97;;;2.87;;
6739;SDS011;3407;49.882;10.920;2022-07-29T04:52:36;5.83;;;2.67;;
6739;SDS011;3407;49.882;10.920;2022-07-29T04:57:32;6.57;;;2.40;;
6739;SDS011;3407;49.882;10.920;2022-07-29T05:02:27;7.03;;;2.33;;
6739;SDS011;3407;49.882;10.920;2022-07-29T05:07:23;5.27;;;2.47;;
6739;SDS011;3407;49.882;10.920;2022-07-29T05:12:18;3.60;;;2.10;;
6739;SDS011;3407;49.882;10.920;2022-07-29T05:17:14;4.13;;;2.40;;
6739;SDS011;3407;49.882;10.920;2022-07-29T05:22:09;4.00;;;2.57;;
6739;SDS011;3407;49.882;10.920;2022-07-29T05:27:05;4.57;;;2.63;;
6739;SDS011;3407;49.882;10.920;2022-07-29T05:32:00;4.93;;;3.17;;
6739;SDS011;3407;49.882;10.920;2022-07-29T05:36:56;3.90;;;2.83;;
6739;SDS011;3407;49.882;10.920;2022-07-29T05:41:52;4.00;;;3.13;;
6739;SDS011;3407;49.882;10.920;2022-07-29T05:46:47;5.17;;;2.60;;
6739;SDS011;3407;49.882;10.920;2022-07-29T05:51:43;9.20;;;2.47;;
6739;SDS011;3407;49.882;10.920;2022-07-29T05:56:39;3.77;;;2.40;;
6739;SDS011;3407;49.882;10.920;2022-07-29T06:01:34;7.27;;;2.30;;
6739;SDS011;3407;49.882;10.920;2022-07-29T06:06:34;3.57;;;2.53;;
6739;SDS011;3407;49.882;10.920;2022-07-29T06:11:30;8.10;;;2.33;;
6739;SDS011;3407;49.882;10.920;2022-07-29T06:16:25;8.43;;;2.33;;
6739;SDS011;3407;49.882;10.920;2022-07-29T06:21:21;5.43;;;2.10;;
6739;SDS011;3407;49.882;10.920;2022-07-29T06:26:16;5.23;;;3.10;;
6739;SDS011;3407;49.882;10.920;2022-07-29T06:31:12;6.60;;;2.57;;
6739;SDS011;3407;49.882;10.920;2022-07-29T06:36:07;2.60;;;1.80;;
6739;SDS011;3407;49.882;10.920;2022-07-29T06:41:03;4.40;;;2.10;;
6739;SDS011;3407;49.882;10.920;2022-07-29T06:46:03;2.73;;;1.60;;
6739;SDS011;3407;49.882;10.920;2022-07-29T06:51:00;4.70;;;1.90;;
6739;SDS011;3407;49.882;10.920;2022-07-29T06:55:56;3.40;;;1.50;;
6739;SDS011;3407;49.882;10.920;2022-07-29T07:00:53;1.70;;;1.60;;
6739;SDS011;3407;49.882;10.920;2022-07-29T07:05:49;1.98;;;1.30;;
6739;SDS011;3407;49.882;10.920;2022-07-29T07:10:46;3.20;;;1.60;;
6739;SDS011;3407;49.882;10.920;2022-07-29T07:15:42;3.00;;;1.92;;
6739;SDS011;3407;49.882;10.920;2022-07-29T07:20:39;3.13;;;1.45;;
6739;SDS011;3407;49.882;10.920;2022-07-29T07:25:34;2.17;;;1.52;;
6739;SDS011;3407;49.882;10.920;2022-07-29T07:30:30;4.70;;;1.30;;
6739;SDS011;3407;49.882;10.920;2022-07-29T07:35:25;4.07;;;1.75;;
6739;SDS011;3407;49.882;10.920;2022-07-29T07:40:22;1.40;;;1.27;;
6739;SDS011;3407;49.882;10.920;2022-07-29T07:45:18;2.03;;;1.40;;
6739;SDS011;3407;49.882;10.920;2022-07-29T07:50:14;4.20;;;1.63;;
6739;SDS011;3407;49.882;10.920;2022-07-29T07:55:10;2.33;;;1.40;;
6739;SDS011;3407;49.882;10.920;2022-07-29T08:00:06;1.77;;;1.48;;
6739;SDS011;3407;49.882;10.920;2022-07-29T08:05:02;2.63;;;1.45;;
6739;SDS011;3407;49.882;10.920;2022-07-29T08:09:57;2.03;;;1.52;;
6739;SDS011;3407;49.882;10.920;2022-07-29T08:14:53;7.45;;;1.65;;
6739;SDS011;3407;49.882;10.920;2022-07-29T08:19:49;3.38;;;2.30;;
6739;SDS011;3407;49.882;10.920;2022-07-29T08:24:44;2.17;;;1.50;;
6739;SDS011;3407;49.882;10.920;2022-07-29T08:29:47;2.88;;;1.80;;
6739;SDS011;3407;49.882;10.920;2022-07-29T08:34:43;2.20;;;1.52;;
6739;SDS011;3407;49.882;10.920;2022-07-29T08:39:41;4.53;;;2.20;;
6739;SDS011;3407;49.882;10.920;2022-07-29T08:44:36;2.70;;;1.50;;
6739;SDS011;3407;49.882;10.920;2022-07-29T08:49:33;2.85;;;1.95;;
6739;SDS011;3407;49.882;10.920;2022-07-29T08:54:29;4.72;;;1.90;;
6739;SDS011;3407;49.882;10.920;2022-07-29T08:59:26;1.87;;;1.77;;
6739;SDS011;3407;49.882;10.920;2022-07-29T09:04:25;2.13;;;1.90;;
6739;SDS011;3407;49.882;10.920;2022-07-29T09:09:24;3.50;;;2.03;;
6739;SDS011;3407;49.882;10.920;2022-07-29T09:14:20;1.83;;;1.73;;
6739;SDS011;3407;49.882;10.920;2022-07-29T09:19:19;2.77;;;2.10;;
6739;SDS011;3407;49.882;10.920;2022-07-29T09:24:19;2.50;;;1.80;;
6739;SDS011;3407;49.882;10.920;2022-07-29T09:29:16;4.03;;;3.20;;
6739;SDS011;3407;49.882;10.920;2022-07-29T09:34:14;2.20;;;2.00;;
6739;SDS011;3407;49.882;10.920;2022-07-29T09:39:11;2.90;;;2.00;;
6739;SDS011;3407;49.882;10.920;2022-07-29T09:44:07;4.07;;;2.22;;
6739;SDS011;3407;49.882;10.920;2022-07-29T09:49:12;3.35;;;2.42;;
6739;SDS011;3407;49.882;10.920;2022-07-29T09:54:22;2.38;;;2.17;;
6739;SDS011;3407;49.882;10.920;2022-07-29T09:59:19;4.88;;;2.22;;
6739;SDS011;3407;49.882;10.920;2022-07-29T10:04:21;3.13;;;2.28;;
6739;SDS011;3407;49.882;10.920;2022-07-29T10:09:17;3.05;;;2.33;;
6739;SDS011;3407;49.882;10.920;2022-07-29T10:14:13;2.63;;;2.40;;
6739;SDS011;3407;49.882;10.920;2022-07-29T10:19:10;3.97;;;2.55;;
6739;SDS011;3407;49.882;10.920;2022-07-29T10:24:05;3.58;;;2.03;;
6739;SDS011;3407;49.882;10.920;2022-07-29T10:29:02;2.90;;;2.37;;
6739;SDS011;3407;49.882;10.920;2022-07-29T10:39:26;5.77;;;2.43;;
6739;SDS011;3407;49.882;10.920;2022-07-29T10:44:30;3.90;;;1.90;;
6739;SDS011;3407;49.882;10.920;2022-07-29T10:49:27;2.93;;;1.90;;
6739;SDS011;3407;49.882;10.920;2022-07-29T10:59:34;3.13;;;1.97;;
6739;SDS011;3407;49.882;10.920;2022-07-29T11:09:40;3.83;;;2.57;;
6739;SDS011;3407;49.882;10.920;2022-07-29T11:19:47;3.20;;;2.53;;
6739;SDS011;3407;49.882;10.920;2022-07-29T11:24:42;2.63;;;2.27;;
6739;SDS011;3407;49.882;10.920;2022-07-29T11:29:39;3.13;;;2.00;;
6739;SDS011;3407;49.882;10.920;2022-07-29T11:34:46;2.90;;;2.70;;
6739;SDS011;3407;49.882;10.920;2022-07-29T11:45:00;2.60;;;2.10;;
6739;SDS011;3407;49.882;10.920;2022-07-29T11:50:01;3.40;;;2.00;;
6739;SDS011;3407;49.882;10.920;2022-07-29T11:54:57;3.40;;;2.30;;
6739;SDS011;3407;49.882;10.920;2022-07-29T11:59:57;2.38;;;1.73;;
6739;SDS011;3407;49.882;10.920;2022-07-29T12:04:53;4.95;;;2.03;;
6739;SDS011;3407;49.882;10.920;2022-07-29T12:09:50;3.25;;;2.00;;
6739;SDS011;3407;49.882;10.920;2022-07-29T12:14:46;2.80;;;2.28;;
6739;SDS011;3407;49.882;10.920;2022-07-29T12:19:42;5.00;;;2.65;;
6739;SDS011;3407;49.882;10.920;2022-07-29T12:24:43;2.85;;;2.00;;
6739;SDS011;3407;49.882;10.920;2022-07-29T12:29:39;2.78;;;2.17;;
6739;SDS011;3407;49.882;10.920;2022-07-29T12:34:34;2.13;;;1.90;;
6739;SDS011;3407;49.882;10.920;2022-07-29T12:39:30;2.90;;;2.70;;
6739;SDS011;3407;49.882;10.920;2022-07-29T12:44:42;2.83;;;2.15;;
6739;SDS011;3407;49.882;10.920;2022-07-29T12:49:42;2.92;;;2.25;;
6739;SDS011;3407;49.882;10.920;2022-07-29T12:54:46;2.30;;;2.10;;
6739;SDS011;3407;49.882;10.920;2022-07-29T12:59:41;3.90;;;2.58;;
6739;SDS011;3407;49.882;10.920;2022-07-29T13:04:37;2.35;;;1.92;;
6739;SDS011;3407;49.882;10.920;2022-07-29T13:09:40;2.25;;;2.05;;
6739;SDS011;3407;49.882;10.920;2022-07-29T13:14:38;3.40;;;2.10;;
6739;SDS011;3407;49.882;10.920;2022-07-29T13:19:36;2.47;;;2.15;;
6739;SDS011;3407;49.882;10.920;2022-07-29T13:24:44;2.65;;;2.45;;
6739;SDS011;3407;49.882;10.920;2022-07-29T13:29:41;18.63;;;4.50;;
6739;SDS011;3407;49.882;10.920;2022-07-29T13:34:37;7.90;;;2.95;;
6739;SDS011;3407;49.882;10.920;2022-07-29T13:39:32;2.58;;;2.38;;
6739;SDS011;3407;49.882;10.920;2022-07-29T13:44:28;4.50;;;2.47;;
6739;SDS011;3407;49.882;10.920;2022-07-29T13:49:24;2.95;;;2.33;;
6739;SDS011;3407;49.882;10.920;2022-07-29T13:54:20;5.07;;;2.37;;
6739;SDS011;3407;49.882;10.920;2022-07-29T13:59:15;3.00;;;2.33;;
6739;SDS011;3407;49.882;10.920;2022-07-29T14:04:11;3.07;;;2.70;;
6739;SDS011;3407;49.882;10.920;2022-07-29T14:09:06;3.40;;;2.87;;
6739;SDS011;3407;49.882;10.920;2022-07-29T14:14:03;3.00;;;2.40;;
6739;SDS011;3407;49.882;10.920;2022-07-29T14:18:59;3.27;;;2.63;;
6739;SDS011;3407;49.882;10.920;2022-07-29T14:23:55;3.33;;;2.60;;
6739;SDS011;3407;49.882;10.920;2022-07-29T14:28:50;3.53;;;2.70;;
6739;SDS011;3407;49.882;10.920;2022-07-29T14:33:46;3.40;;;3.10;;
6739;SDS011;3407;49.882;10.920;2022-07-29T14:38:41;3.63;;;3.10;;
6739;SDS011;3407;49.882;10.920;2022-07-29T14:43:37;3.10;;;2.73;;
6739;SDS011;3407;49.882;10.920;2022-07-29T14:48:33;2.80;;;2.60;;
6739;SDS011;3407;49.882;10.920;2022-07-29T14:53:28;3.20;;;2.50;;
6739;SDS011;3407;49.882;10.920;2022-07-29T14:58:24;3.43;;;3.13;;
6739;SDS011;3407;49.882;10.920;2022-07-29T15:03:19;3.20;;;2.90;;
6739;SDS011;3407;49.882;10.920;2022-07-29T15:08:15;2.77;;;2.50;;
6739;SDS011;3407;49.882;10.920;2022-07-29T15:13:11;3.53;;;2.50;;
6739;SDS011;3407;49.882;10.920;2022-07-29T15:18:06;3.93;;;2.30;;
6739;SDS011;3407;49.882;10.920;2022-07-29T15:23:02;2.47;;;2.03;;
6739;SDS011;3407;49.882;10.920;2022-07-29T15:27:57;2.63;;;2.10;;
6739;SDS011;3407;49.882;10.920;2022-07-29T15:32:57;3.50;;;2.77;;
6739;SDS011;3407;49.882;10.920;2022-07-29T15:37:52;2.73;;;2.53;;
6739;SDS011;3407;49.882;10.920;2022-07-29T15:42:48;6.33;;;3.00;;
6739;SDS011;3407;49.882;10.920;2022-07-29T15:47:43;4.20;;;3.17;;
6739;SDS011;3407;49.882;10.920;2022-07-29T15:52:39;8.00;;;3.70;;
6739;SDS011;3407;49.882;10.920;2022-07-29T15:57:34;6.97;;;4.60;;
6739;SDS011;3407;49.882;10.920;2022-07-29T16:02:30;4.87;;;4.27;;
6739;SDS011;3407;49.882;10.920;2022-07-29T16:07:25;5.93;;;4.23;;
6739;SDS011;3407;49.882;10.920;2022-07-29T16:12:21;6.60;;;5.30;;
6739;SDS011;3407;49.882;10.920;2022-07-29T16:17:16;7.77;;;4.73;;
6739;SDS011;3407;49.882;10.920;2022-07-29T16:22:13;6.77;;;5.13;;
6739;SDS011;3407;49.882;10.920;2022-07-29T16:27:08;11.53;;;6.43;;
6739;SDS011;3407;49.882;10.920;2022-07-29T16:32:04;7.53;;;5.73;;
6739;SDS011;3407;49.882;10.920;2022-07-29T16:37:00;10.40;;;4.90;;
6739;SDS011;3407;49.882;10.920;2022-07-29T16:41:56;10.00;;;5.37;;
6739;SDS011;3407;49.882;10.920;2022-07-29T16:46:51;7.77;;;5.33;;
6739;SDS011;3407;49.882;10.920;2022-07-29T16:51:47;8.00;;;5.87;;
6739;SDS011;3407;49.882;10.920;2022-07-29T16:56:42;8.57;;;5.60;;
6739;SDS011;3407;49.882;10.920;2022-07-29T17:01:38;11.03;;;4.93;;
6739;SDS011;3407;49.882;10.920;2022-07-29T17:06:42;6.37;;;5.10;;
6739;SDS011;3407;49.882;10.920;2022-07-29T17:11:38;8.97;;;4.53;;
6739;SDS011;3407;49.882;10.920;2022-07-29T17:16:34;6.87;;;4.57;;
6739;SDS011;3407;49.882;10.920;2022-07-29T17:21:30;6.13;;;4.47;;
6739;SDS011;3407;49.882;10.920;2022-07-29T17:26:26;4.43;;;4.00;;
6739;SDS011;3407;49.882;10.920;2022-07-29T17:31:21;7.17;;;5.00;;
6739;SDS011;3407;49.882;10.920;2022-07-29T17:36:17;8.40;;;4.90;;
6739;SDS011;3407;49.882;10.920;2022-07-29T17:41:19;7.40;;;4.30;;
6739;SDS011;3407;49.882;10.920;2022-07-29T17:46:16;5.57;;;4.03;;
6739;SDS011;3407;49.882;10.920;2022-07-29T17:51:12;6.47;;;4.83;;
6739;SDS011;3407;49.882;10.920;2022-07-29T17:56:07;8.00;;;5.00;;
6739;SDS011;3407;49.882;10.920;2022-07-29T18:01:03;9.20;;;5.40;;
6739;SDS011;3407;49.882;10.920;2022-07-29T18:05:59;7.17;;;4.60;;
6739;SDS011;3407;49.882;10.920;2022-07-29T18:10:55;5.13;;;4.50;;
6739;SDS011;3407;49.882;10.920;2022-07-29T18:15:51;8.73;;;5.13;;
6739;SDS011;3407;49.882;10.920;2022-07-29T18:20:46;5.63;;;4.60;;
6739;SDS011;3407;49.882;10.920;2022-07-29T18:25:42;6.50;;;4.63;;
6739;SDS011;3407;49.882;10.920;2022-07-29T18:30:38;7.10;;;4.67;;
6739;SDS011;3407;49.882;10.920;2022-07-29T18:35:33;6.67;;;4.43;;
6739;SDS011;3407;49.882;10.920;2022-07-29T18:40:29;6.17;;;4.37;;
6739;SDS011;3407;49.882;10.920;2022-07-29T18:45:25;5.37;;;3.30;;
6739;SDS011;3407;49.882;10.920;2022-07-29T18:50:20;9.37;;;4.30;;
6739;SDS011;3407;49.882;10.920;2022-07-29T18:55:17;7.80;;;4.60;;
6739;SDS011;3407;49.882;10.920;2022-07-29T19:00:12;7.27;;;5.07;;
6739;SDS011;3407;49.882;10.920;2022-07-29T19:05:08;7.50;;;5.20;;
6739;SDS011;3407;49.882;10.920;2022-07-29T19:10:04;6.00;;;4.70;;
6739;SDS011;3407;49.882;10.920;2022-07-29T19:15:00;7.97;;;5.50;;
6739;SDS011;3407;49.882;10.920;2022-07-29T19:19:57;5.77;;;5.23;;
6739;SDS011;3407;49.882;10.920;2022-07-29T19:24:52;7.27;;;5.33;;
6739;SDS011;3407;49.882;10.920;2022-07-29T19:29:48;6.80;;;6.03;;
6739;SDS011;3407;49.882;10.920;2022-07-29T19:34:43;9.60;;;6.93;;
6739;SDS011;3407;49.882;10.920;2022-07-29T19:39:59;7.13;;;6.00;;
6739;SDS011;3407;49.882;10.920;2022-07-29T19:44:54;7.80;;;6.33;;
6739;SDS011;3407;49.882;10.920;2022-07-29T19:49:50;8.37;;;6.03;;
6739;SDS011;3407;49.882;10.920;2022-07-29T19:54:46;7.10;;;5.77;;
6739;SDS011;3407;49.882;10.920;2022-07-29T19:59:41;11.47;;;6.83;;
6739;SDS011;3407;49.882;10.920;2022-07-29T20:04:37;8.07;;;5.73;;
6739;SDS011;3407;49.882;10.920;2022-07-29T20:09:33;8.60;;;6.30;;
6739;SDS011;3407;49.882;10.920;2022-07-29T20:14:29;5.97;;;5.37;;
6739;SDS011;3407;49.882;10.920;2022-07-29T20:19:24;6.40;;;5.13;;
6739;SDS011;3407;49.882;10.920;2022-07-29T20:24:20;6.33;;;4.90;;
6739;SDS011;3407;49.882;10.920;2022-07-29T20:29:16;8.77;;;5.70;;
6739;SDS011;3407;49.882;10.920;2022-07-29T20:34:12;5.27;;;4.77;;
6739;SDS011;3407;49.882;10.920;2022-07-29T20:39:10;6.47;;;5.73;;
6739;SDS011;3407;49.882;10.920;2022-07-29T20:44:06;8.17;;;6.43;;
6739;SDS011;3407;49.882;10.920;2022-07-29T20:49:01;7.20;;;6.30;;
6739;SDS011;3407;49.882;10.920;2022-07-29T20:53:57;7.97;;;6.40;;
6739;SDS011;3407;49.882;10.920;2022-07-29T20:58:53;7.50;;;6.67;;
6739;SDS011;3407;49.882;10.920;2022-07-29T21:03:48;9.17;;;6.00;;
6739;SDS011;3407;49.882;10.920;2022-07-29T21:08:44;10.13;;;6.60;;
6739;SDS011;3407;49.882;10.920;2022-07-29T21:13:40;7.67;;;6.37;;
6739;SDS011;3407;49.882;10.920;2022-07-29T21:18:39;6.73;;;5.13;;
6739;SDS011;3407;49.882;10.920;2022-07-29T21:23:37;7.03;;;5.97;;
6739;SDS011;3407;49.882;10.920;2022-07-29T21:28:32;8.57;;;6.03;;
6739;SDS011;3407;49.882;10.920;2022-07-29T21:33:34;8.17;;;6.33;;
6739;SDS011;3407;49.882;10.920;2022-07-29T21:38:30;8.43;;;7.00;;
6739;SDS011;3407;49.882;10.920;2022-07-29T21:43:27;8.10;;;6.83;;
6739;SDS011;3407;49.882;10.920;2022-07-29T21:48:23;6.80;;;6.10;;
6739;SDS011;3407;49.882;10.920;2022-07-29T21:53:20;6.80;;;6.07;;
6739;SDS011;3407;49.882;10.920;2022-07-29T21:58:16;10.40;;;6.97;;
6739;SDS011;3407;49.882;10.920;2022-07-29T22:03:12;7.80;;;6.17;;
6739;SDS011;3407;49.882;10.920;2022-07-29T22:08:08;9.53;;;6.77;;
6739;SDS011;3407;49.882;10.920;2022-07-29T22:13:03;9.53;;;6.67;;
6739;SDS011;3407;49.882;10.920;2022-07-29T22:17:59;8.50;;;6.17;;
6739;SDS011;3407;49.882;10.920;2022-07-29T22:22:55;7.90;;;6.30;;
6739;SDS011;3407;49.882;10.920;2022-07-29T22:27:50;8.50;;;6.67;;
6739;SDS011;3407;49.882;10.920;2022-07-29T22:32:46;9.00;;;6.50;;
6739;SDS011;3407;49.882;10.920;2022-07-29T22:37:43;8.33;;;7.20;;
6739;SDS011;3407;49.882;10.920;2022-07-29T22:42:39;8.50;;;6.97;;
6739;SDS011;3407;49.882;10.920;2022-07-29T22:47:34;8.23;;;6.80;;
6739;SDS011;3407;49.882;10.920;2022-07-29T22:52:30;8.87;;;7.33;;
6739;SDS011;3407;49.882;10.920;2022-07-29T22:57:25;10.17;;;8.20;;
6739;SDS011;3407;49.882;10.920;2022-07-29T23:02:21;10.27;;;8.27;;
6739;SDS011;3407;49.882;10.920;2022-07-29T23:07:16;9.67;;;8.03;;
6739;SDS011;3407;49.882;10.920;2022-07-29T23:12:12;10.53;;;7.80;;
6739;SDS011;3407;49.882;10.920;2022-07-29T23:17:07;14.03;;;8.90;;
6739;SDS011;3407;49.882;10.920;2022-07-29T23:22:04;9.00;;;8.00;;
6739;SDS011;3407;49.882;10.920;2022-07-29T23:26:59;11.47;;;7.97;;
6739;SDS011;3407;49.882;10.920;2022-07-29T23:31:55;9.87;;;7.53;;
6739;SDS011;3407;49.882;10.920;2022-07-29T23:36:51;12.53;;;7.37;;
6739;SDS011;3407;49.882;10.920;2022-07-29T23:41:46;7.53;;;6.73;;
6739;SDS011;3407;49.882;10.920;2022-07-29T23:46:42;9.17;;;7.73;;
6739;SDS011;3407;49.882;10.920;2022-07-29T23:51:38;9.57;;;7.37;;
6739;SDS011;3407;49.882;10.920;2022-07-29T23:56:33;8.93;;;7.57;;
